Olivet, MI

2:45 AM EDT on October 23, 2014 (GMT -0400)
KMIBELLE7 | Change Station
CLOSE
Current Station
Personal Weather Station
Location: Bellevue, MI
Elevation: 263 m
Nearby Weather Stations

Elev 263 m 42.44 °N, 85.01 °W | Updated 15 minutes ago

Fog
Fog
-1.5 °C
Feels Like -2 °C
N
0.0
Wind Variable Wind from SW

Today
High -- | Low -- °C
--% Chance of Precip.
Yesterday
High -- | Low -- °C
Precip. -- mm
8:02 AM 6:45 PM
Waning Crescent, 0% visible
Pressure 1025 hPa
Visibility 0.4 kilometers
Clouds
Windchill -2 °C
Dew Point -3 °C
Humidity 92%
Rainfall 0 mm
Snow Depth Not available.
UV Not available.
Pollen .30 out of 12
Air Quality Not available.
Flu Activity Sporadic
METAR KFPK 230635Z AUTO 00000KT 1/4SM FG VV002 00/00 A3027 RMK AO2 T00011005

More Conditions Fewer Conditions

Pressure 1025 hPa
Visibility 0.4 kilometers
Clouds
Windchill -2 °C
Dew Point -3 °C
Humidity 92%
Rainfall 0 mm
Snow Depth Not available.
UV Not available.
Pollen .30 out of 12
Air Quality Not available.
Flu Activity Sporadic
METAR KFPK 230635Z AUTO 00000KT 1/4SM FG VV002 00/00 A3027 RMK AO2 T00011005

More Conditions Fewer Conditions

10-Day Weather Forecast

Almanac

Astronomy

Oct. 23, 2014 Rise Set
Actual Time 8:02 AM EDT 6:45 PM EDT
Civil Twilight 7:33 AM EDT 7:13 PM EDT
Nautical Twilight 7:00 AM EDT 7:46 PM EDT
Astronomical Twilight 6:27 AM EDT 8:19 PM EDT
Moon 7:40 AM EDT 6:46 PM EDT
Length of Visible Light 11h 40m
Length of Day
10h 43m
Tomorrow will be 2m 41s shorter.
Waning Crescent, 0% of the Moon is Illuminated
Today
Waning Crescent
Oct 23
New
Oct 30
First Quarter
Nov 6
Full
Nov 14
Last Quarter

Today's Extremes

State Highs State Lows

Community

WunderPhotos

Upload Photos

1,764,194 photos uploaded!

Nearby

Air Quality

  Air Quality AQ Index Pollutant
Yesterday Good
OZONE
Thursday Good
PM2.5
Friday Good
PM2.5
Saturday Good
PM2.5
Sunday Good
PM2.5
Monday Moderate
PM2.5

Snow Depth

Station Depth Elevation
No new snow has been reported.

Earthquake Activity

City Distance Mag. Time & Date
No recent earthquake activity has been reported nearby.
Minimum magnitude displayed is 2.5.

Coastal Water Temperatures

Place Temperature
No Stations Reporting

Nearby Weather Stations